createdAt,value
2019-02-04T00:01:30.726Z,29.20
2019-02-04T00:03:57.911Z,29.20
2019-02-04T00:06:25.030Z,29.10
2019-02-04T00:08:52.089Z,29.10
2019-02-04T00:11:19.152Z,29.20
2019-02-04T00:13:46.317Z,29.10
2019-02-04T00:16:13.377Z,29.10
2019-02-04T00:18:40.743Z,29.10
2019-02-04T00:21:07.844Z,29.10
2019-02-04T00:23:35.115Z,29.10
2019-02-04T00:26:02.182Z,29.00
2019-02-04T00:28:29.296Z,29.10
2019-02-04T00:30:56.424Z,29.00
2019-02-04T00:33:23.529Z,29.00
2019-02-04T00:35:51.052Z,29.10
2019-02-04T00:38:18.155Z,29.00
2019-02-04T00:40:45.319Z,29.00
2019-02-04T00:43:12.377Z,29.00
2019-02-04T00:45:39.441Z,29.10
2019-02-04T00:48:06.609Z,29.10
2019-02-04T00:50:33.687Z,29.00
2019-02-04T00:53:00.834Z,29.00
2019-02-04T00:55:27.956Z,29.00
2019-02-04T00:57:55.018Z,28.90
2019-02-04T01:00:22.269Z,29.00
2019-02-04T01:02:49.352Z,29.00
2019-02-04T01:05:16.414Z,28.90
2019-02-04T01:07:43.519Z,28.70
2019-02-04T01:10:10.568Z,29.00
2019-02-04T01:12:38.004Z,28.90
2019-02-04T01:15:05.175Z,28.90
2019-02-04T01:17:32.319Z,28.90
2019-02-04T01:19:59.393Z,28.90
2019-02-04T01:22:26.464Z,28.90
2019-02-04T01:24:53.666Z,28.80
2019-02-04T01:27:20.720Z,28.90
2019-02-04T01:29:47.818Z,28.90
2019-02-04T01:32:15.088Z,28.90
2019-02-04T01:34:42.264Z,28.90
2019-02-04T01:37:09.328Z,28.90
2019-02-04T01:39:36.422Z,28.80
2019-02-04T01:42:03.477Z,28.80
2019-02-04T01:44:30.664Z,28.80
2019-02-04T01:46:57.993Z,28.80
2019-02-04T01:49:25.083Z,28.80
2019-02-04T01:51:52.190Z,28.80
2019-02-04T01:54:19.458Z,28.80
2019-02-04T01:56:46.562Z,28.80
2019-02-04T01:59:13.631Z,28.70
2019-02-04T02:01:40.760Z,28.80
2019-02-04T02:04:07.862Z,28.80
2019-02-04T02:06:34.928Z,28.80
2019-02-04T02:09:02.116Z,28.80
2019-02-04T02:11:29.382Z,28.70
2019-02-04T02:13:56.660Z,28.70
2019-02-04T02:16:23.789Z,29.00
2019-02-04T02:18:50.851Z,28.70
2019-02-04T02:21:17.938Z,28.70
2019-02-04T02:23:44.991Z,28.70
2019-02-04T02:26:12.106Z,28.70
2019-02-04T02:28:39.161Z,28.70
2019-02-04T02:31:06.250Z,28.70
2019-02-04T02:33:33.451Z,28.70
2019-02-04T02:36:00.507Z,29.20
2019-02-04T02:38:27.611Z,28.80
2019-02-04T02:40:54.690Z,28.70
2019-02-04T02:43:21.745Z,29.30
2019-02-04T02:45:48.909Z,28.70
2019-02-04T02:48:16.044Z,28.60
2019-02-04T02:50:43.209Z,28.60
2019-02-04T02:53:10.457Z,28.60
2019-02-04T02:55:38.020Z,28.60
2019-02-04T02:58:05.078Z,28.70
2019-02-04T03:00:32.139Z,28.60
2019-02-04T03:02:59.462Z,28.60
2019-02-04T03:05:27.743Z,28.70
2019-02-04T03:07:54.810Z,28.60
2019-02-04T03:10:21.944Z,28.60
2019-02-04T03:12:49.402Z,28.60
2019-02-04T03:15:16.562Z,28.60
2019-02-04T03:17:51.494Z,28.60
2019-02-04T03:20:12.446Z,29.10
2019-02-04T03:22:39.725Z,28.60
2019-02-04T03:25:06.992Z,28.60
2019-02-04T03:27:34.144Z,28.60
2019-02-04T03:30:01.315Z,28.60
2019-02-04T03:32:28.377Z,28.60
2019-02-04T03:34:55.580Z,28.60
2019-02-04T03:37:22.643Z,28.50
2019-02-04T03:39:49.727Z,28.50
2019-02-04T03:42:16.842Z,28.60
2019-02-04T03:44:43.995Z,28.40
2019-02-04T03:47:11.528Z,28.60
2019-02-04T03:49:38.646Z,28.60
2019-02-04T03:52:05.703Z,28.60
2019-02-04T03:54:32.991Z,28.50
2019-02-04T03:57:00.081Z,28.50
2019-02-04T03:59:27.231Z,28.50
2019-02-04T04:01:54.406Z,28.50
2019-02-04T04:04:21.578Z,28.50
2019-02-04T04:06:48.832Z,28.50
2019-02-04T04:09:15.889Z,28.50
2019-02-04T04:11:43.144Z,28.50
2019-02-04T04:14:10.392Z,28.50
2019-02-04T04:16:37.448Z,28.50
2019-02-04T04:19:04.541Z,28.40
2019-02-04T04:21:31.673Z,28.50
2019-02-04T04:23:58.784Z,28.50
2019-02-04T04:26:25.833Z,28.40
2019-02-04T04:28:52.915Z,28.40
2019-02-04T04:31:20.000Z,28.40
2019-02-04T04:33:47.058Z,28.40
2019-02-04T04:36:14.247Z,29.00
2019-02-04T04:38:41.385Z,28.40
2019-02-04T04:41:08.527Z,28.40
2019-02-04T04:43:35.587Z,28.50
2019-02-04T04:46:02.838Z,28.50
2019-02-04T04:48:29.896Z,28.50
2019-02-04T04:50:56.991Z,28.50
2019-02-04T04:53:24.168Z,28.50
2019-02-04T04:55:51.602Z,28.60
2019-02-04T04:58:18.671Z,28.60
2019-02-04T05:00:45.838Z,28.60
2019-02-04T05:03:12.906Z,28.70
2019-02-04T05:05:40.045Z,28.80
2019-02-04T05:08:07.099Z,28.80
2019-02-04T05:10:34.191Z,28.70
2019-02-04T05:13:01.825Z,28.80
2019-02-04T05:15:28.910Z,28.80
2019-02-04T05:17:55.995Z,28.70
2019-02-04T05:20:23.076Z,28.70
2019-02-04T05:22:50.141Z,28.70
2019-02-04T05:25:17.238Z,28.60
2019-02-04T05:27:44.498Z,28.70
2019-02-04T05:30:11.830Z,28.70
2019-02-04T05:32:38.926Z,28.70
2019-02-04T05:35:05.996Z,28.70
2019-02-04T05:37:33.195Z,28.60
2019-02-04T05:40:00.319Z,28.60
2019-02-04T05:42:27.575Z,28.60
2019-02-04T05:44:54.885Z,28.50
2019-02-04T05:47:22.420Z,28.50
2019-02-04T05:49:49.486Z,28.50
2019-02-04T05:52:16.586Z,28.40
2019-02-04T05:54:43.853Z,28.50
2019-02-04T05:57:10.914Z,28.40
2019-02-04T05:59:37.995Z,28.40
2019-02-04T06:02:05.061Z,28.40
2019-02-04T06:04:32.657Z,29.00
2019-02-04T06:06:59.711Z,28.40
2019-02-04T06:09:26.808Z,28.80
2019-02-04T06:11:53.867Z,28.20
2019-02-04T06:14:20.927Z,28.20
2019-02-04T06:16:48.103Z,28.20
2019-02-04T06:19:15.338Z,28.20
2019-02-04T06:21:43.024Z,28.20
2019-02-04T06:24:10.140Z,28.30
2019-02-04T06:26:37.327Z,28.40
2019-02-04T06:29:04.466Z,28.30
2019-02-04T06:31:31.786Z,28.40
2019-02-04T06:33:59.078Z,28.40
2019-02-04T06:36:26.311Z,28.40
2019-02-04T06:38:53.760Z,28.40
2019-02-04T06:41:21.042Z,28.30
2019-02-04T06:43:48.290Z,28.30
2019-02-04T06:46:16.031Z,28.30
2019-02-04T06:48:43.163Z,28.30
2019-02-04T06:51:10.227Z,28.20
2019-02-04T06:53:37.506Z,28.20
2019-02-04T06:56:04.853Z,28.20
2019-02-04T06:58:31.904Z,28.20
2019-02-04T07:00:59.058Z,28.20
2019-02-04T07:03:26.138Z,28.10
2019-02-04T07:05:53.364Z,28.10
2019-02-04T07:08:20.425Z,28.10
2019-02-04T07:10:47.522Z,28.10
2019-02-04T07:13:14.595Z,28.10
2019-02-04T07:15:41.646Z,28.10
2019-02-04T07:18:08.815Z,28.10
2019-02-04T07:20:35.868Z,28.00
2019-02-04T07:23:02.957Z,28.00
2019-02-04T07:25:30.095Z,27.90
2019-02-04T07:27:57.151Z,28.00
2019-02-04T07:30:24.245Z,27.90
2019-02-04T07:32:51.882Z,27.90
2019-02-04T07:35:18.967Z,27.90
2019-02-04T07:37:46.038Z,27.90
2019-02-04T07:40:13.112Z,27.90
2019-02-04T07:42:40.226Z,27.90
2019-02-04T07:45:07.290Z,28.00
2019-02-04T07:47:34.406Z,27.90
2019-02-04T07:50:01.473Z,27.90
2019-02-04T07:52:28.526Z,27.90
2019-02-04T07:54:55.747Z,27.80
2019-02-04T07:57:22.841Z,27.80
2019-02-04T07:59:49.928Z,27.70
2019-02-04T08:02:17.540Z,28.40
2019-02-04T08:04:44.692Z,27.80
2019-02-04T08:07:11.803Z,27.70
2019-02-04T08:09:38.861Z,27.70
2019-02-04T08:12:05.976Z,27.70
2019-02-04T08:14:33.450Z,27.80
2019-02-04T08:17:00.542Z,27.70
2019-02-04T08:19:27.631Z,27.70
2019-02-04T08:21:54.693Z,27.70
2019-02-04T08:24:21.763Z,27.70
2019-02-04T08:26:49.216Z,27.60
2019-02-04T08:29:16.369Z,27.60
2019-02-04T08:31:43.528Z,27.70
2019-02-04T08:34:10.760Z,27.60
2019-02-04T08:36:45.951Z,27.60
2019-02-04T08:39:06.696Z,27.30
2019-02-04T08:41:33.916Z,27.10
2019-02-04T08:44:01.631Z,27.10
2019-02-04T08:46:28.813Z,27.10
2019-02-04T08:48:55.881Z,27.30
2019-02-04T08:51:23.177Z,27.40
2019-02-04T08:53:50.433Z,27.40
2019-02-04T08:56:17.581Z,27.40
2019-02-04T08:58:44.680Z,27.40
2019-02-04T09:01:11.747Z,27.30
2019-02-04T09:03:48.246Z,27.40
2019-02-04T09:06:15.454Z,27.40
2019-02-04T09:08:42.613Z,27.50
2019-02-04T09:11:09.668Z,27.40
2019-02-04T09:13:36.838Z,27.50
2019-02-04T09:16:03.979Z,27.50
2019-02-04T09:18:31.160Z,27.50
2019-02-04T09:20:58.218Z,27.50
2019-02-04T09:23:25.286Z,27.50
2019-02-04T09:25:52.487Z,27.40
2019-02-04T09:28:19.609Z,27.40
2019-02-04T09:30:46.764Z,27.50
2019-02-04T09:33:13.934Z,27.40
2019-02-04T09:35:41.087Z,27.50
2019-02-04T09:38:08.733Z,27.50
2019-02-04T09:40:35.872Z,27.50
2019-02-04T09:43:03.194Z,27.50
2019-02-04T09:45:30.262Z,27.40
2019-02-04T09:47:57.558Z,27.50
2019-02-04T09:50:24.702Z,27.40
2019-02-04T09:52:51.854Z,27.40
2019-02-04T09:55:19.117Z,27.40
2019-02-04T09:57:46.661Z,27.50
2019-02-04T10:00:13.808Z,27.50
2019-02-04T10:02:41.069Z,27.50
2019-02-04T10:05:08.210Z,27.50
2019-02-04T10:07:35.390Z,27.50
2019-02-04T10:10:02.481Z,27.50
2019-02-04T10:12:29.639Z,27.50
2019-02-04T10:14:57.096Z,27.50
2019-02-04T10:17:31.503Z,27.50
2019-02-04T10:19:58.674Z,27.50
2019-02-04T10:22:25.762Z,27.50
2019-02-04T10:24:52.900Z,27.50
2019-02-04T10:27:20.171Z,27.50
2019-02-04T10:29:47.942Z,27.50
2019-02-04T10:32:15.674Z,27.50
2019-02-04T10:34:42.988Z,27.50
2019-02-04T10:37:10.219Z,27.50
2019-02-04T10:39:37.584Z,27.50
2019-02-04T10:42:04.723Z,27.50
2019-02-04T10:44:32.023Z,27.60
2019-02-04T10:46:59.605Z,27.50
2019-02-04T10:49:26.918Z,27.50
2019-02-04T10:51:54.061Z,27.50
2019-02-04T10:54:21.234Z,27.50
2019-02-04T10:56:48.365Z,27.60
2019-02-04T10:59:15.522Z,27.50
2019-02-04T11:01:42.670Z,27.50
2019-02-04T11:04:10.342Z,27.50
2019-02-04T11:06:37.722Z,27.50
2019-02-04T11:09:04.855Z,27.50
2019-02-04T11:11:32.024Z,27.50
2019-02-04T11:13:59.164Z,27.50
2019-02-04T11:16:26.362Z,27.50
2019-02-04T11:18:53.539Z,27.50
2019-02-04T11:21:20.652Z,27.50
2019-02-04T11:23:48.124Z,27.50
2019-02-04T11:26:15.226Z,27.50
2019-02-04T11:28:42.509Z,27.50
2019-02-04T11:31:09.662Z,27.50
2019-02-04T11:33:36.919Z,27.50
2019-02-04T11:36:04.242Z,27.50
2019-02-04T11:38:31.520Z,27.50
2019-02-04T11:40:58.904Z,27.50
2019-02-04T11:43:26.203Z,27.50
2019-02-04T11:45:55.073Z,27.50
2019-02-04T11:48:22.436Z,27.50
2019-02-04T11:50:49.564Z,27.50
2019-02-04T11:53:16.812Z,27.50
2019-02-04T11:55:44.677Z,27.50
2019-02-04T11:58:11.777Z,27.40
2019-02-04T12:00:38.897Z,27.40
2019-02-04T12:03:06.003Z,27.40
2019-02-04T12:05:33.345Z,27.40
2019-02-04T12:08:00.711Z,27.40
2019-02-04T12:10:27.931Z,27.40
2019-02-04T12:12:55.009Z,27.40
2019-02-04T12:15:22.177Z,27.40
2019-02-04T12:17:49.267Z,27.40
2019-02-04T12:20:16.373Z,27.40
2019-02-04T12:22:43.508Z,27.40
2019-02-04T12:25:10.633Z,27.40
2019-02-04T12:27:37.718Z,27.40
2019-02-04T12:30:05.059Z,27.30
2019-02-04T12:32:32.678Z,27.30
2019-02-04T12:34:59.940Z,27.40
2019-02-04T12:37:27.034Z,27.40
2019-02-04T12:39:54.153Z,27.40
2019-02-04T12:42:21.217Z,27.30
2019-02-04T12:44:48.592Z,27.30
2019-02-04T12:47:16.163Z,27.40
2019-02-04T12:49:43.588Z,27.40
2019-02-04T12:52:10.678Z,27.30
2019-02-04T12:54:37.820Z,27.30
2019-02-04T12:57:05.007Z,27.40
2019-02-04T12:59:32.273Z,27.40
2019-02-04T13:01:59.361Z,27.30
2019-02-04T13:04:26.566Z,27.30
2019-02-04T13:06:54.353Z,27.30
2019-02-04T13:09:21.474Z,27.30
2019-02-04T13:11:48.772Z,27.30
2019-02-04T13:14:16.251Z,27.30
2019-02-04T13:16:43.344Z,27.30
2019-02-04T13:19:10.821Z,27.30
2019-02-04T13:21:45.003Z,27.20
2019-02-04T13:24:06.965Z,27.30
2019-02-04T13:26:34.099Z,27.20
2019-02-04T13:29:01.222Z,27.20
2019-02-04T13:31:28.399Z,27.30
2019-02-04T13:33:57.288Z,27.30
2019-02-04T13:36:24.553Z,27.30
2019-02-04T13:38:52.172Z,27.30
2019-02-04T13:41:19.667Z,27.30
2019-02-04T13:43:46.722Z,27.30
2019-02-04T13:46:13.954Z,27.20
2019-02-04T13:48:41.020Z,27.30
2019-02-04T13:51:08.179Z,27.20
2019-02-04T13:53:35.299Z,27.30
2019-02-04T13:56:02.397Z,27.20
2019-02-04T13:58:29.980Z,27.20
2019-02-04T14:00:57.170Z,27.20
2019-02-04T14:03:24.306Z,27.10
2019-02-04T14:05:51.568Z,27.10
2019-02-04T14:08:18.821Z,27.10
2019-02-04T14:10:46.364Z,27.20
2019-02-04T14:13:13.673Z,27.10
2019-02-04T14:15:41.319Z,27.10
2019-02-04T14:18:08.499Z,27.10
2019-02-04T14:20:35.653Z,27.10
2019-02-04T14:23:02.738Z,27.10
2019-02-04T14:25:29.918Z,27.10
2019-02-04T14:27:56.998Z,27.00
2019-02-04T14:30:24.065Z,27.10
2019-02-04T14:32:51.570Z,27.00
2019-02-04T14:35:18.858Z,27.40
2019-02-04T14:37:47.134Z,27.00
2019-02-04T14:40:18.521Z,27.00
2019-02-04T14:42:48.182Z,27.10
2019-02-04T14:45:15.108Z,27.10
2019-02-04T14:47:42.971Z,27.10
2019-02-04T14:50:10.215Z,27.10
2019-02-04T14:52:37.382Z,27.10
2019-02-04T14:55:04.935Z,27.10
2019-02-04T14:57:32.316Z,27.10
2019-02-04T15:00:01.177Z,27.00
2019-02-04T15:02:28.638Z,27.50
2019-02-04T15:04:55.856Z,27.00
2019-02-04T15:07:22.971Z,27.00
2019-02-04T15:09:50.108Z,27.10
2019-02-04T15:12:17.213Z,27.10
2019-02-04T15:14:44.292Z,27.10
2019-02-04T15:17:11.456Z,27.10
2019-02-04T15:19:38.839Z,27.60
2019-02-04T15:22:06.055Z,27.10
2019-02-04T15:24:33.147Z,27.10
2019-02-04T15:27:00.329Z,27.10
2019-02-04T15:29:27.756Z,27.10
2019-02-04T15:31:54.856Z,27.10
2019-02-04T15:34:22.119Z,27.10
2019-02-04T15:36:49.324Z,27.10
2019-02-04T15:39:16.452Z,27.10
2019-02-04T15:41:43.582Z,27.10
2019-02-04T15:44:10.996Z,27.10
2019-02-04T15:46:38.168Z,27.10
2019-02-04T15:49:05.669Z,27.10
2019-02-04T15:51:33.378Z,27.10
2019-02-04T15:54:00.486Z,27.00
2019-02-04T15:56:27.741Z,27.10
2019-02-04T15:58:54.842Z,27.10
2019-02-04T16:01:21.965Z,27.10
2019-02-04T16:03:49.102Z,27.20
2019-02-04T16:06:16.167Z,27.20
2019-02-04T16:08:43.339Z,27.20
2019-02-04T16:11:10.429Z,27.20
2019-02-04T16:13:37.696Z,26.80
2019-02-04T16:16:04.757Z,25.80
2019-02-04T16:18:31.853Z,25.70
2019-02-04T16:20:58.915Z,26.40
2019-02-04T16:23:26.041Z,26.60
2019-02-04T16:25:53.100Z,26.80
2019-02-04T16:28:20.591Z,27.10
2019-02-04T16:30:47.654Z,26.70
2019-02-04T16:33:14.718Z,26.60
2019-02-04T16:35:41.961Z,26.80
2019-02-04T16:38:09.123Z,27.00
2019-02-04T16:40:36.186Z,26.90
2019-02-04T16:43:03.261Z,26.70
2019-02-04T16:45:30.942Z,26.80
2019-02-04T16:47:57.999Z,26.90
2019-02-04T16:50:25.103Z,27.00
2019-02-04T16:52:52.284Z,27.00
2019-02-04T16:55:19.348Z,27.10
2019-02-04T16:57:46.601Z,27.00
2019-02-04T17:00:13.869Z,26.90
2019-02-04T17:02:40.958Z,26.90
2019-02-04T17:05:08.071Z,27.10
2019-02-04T17:07:35.225Z,27.10
2019-02-04T17:10:02.290Z,27.00
2019-02-04T17:12:29.460Z,27.10
2019-02-04T17:14:56.792Z,27.10
2019-02-04T17:17:24.358Z,27.10
2019-02-04T17:19:51.506Z,27.10
2019-02-04T17:22:18.885Z,27.10
2019-02-04T17:24:46.167Z,27.10
2019-02-04T17:27:13.240Z,27.10
2019-02-04T17:29:40.402Z,27.10
2019-02-04T17:32:07.463Z,27.10
2019-02-04T17:34:34.548Z,27.10
2019-02-04T17:37:01.613Z,27.10
2019-02-04T17:39:29.479Z,27.20
2019-02-04T17:41:56.531Z,27.10
2019-02-04T17:44:23.631Z,27.10
2019-02-04T17:46:50.724Z,27.10
2019-02-04T17:49:17.821Z,27.20
2019-02-04T17:51:44.880Z,27.20
2019-02-04T17:54:11.980Z,27.20
2019-02-04T17:56:39.069Z,27.20
2019-02-04T17:59:06.128Z,27.10
2019-02-04T18:01:33.227Z,27.10
2019-02-04T18:04:00.371Z,27.00
2019-02-04T18:06:27.636Z,26.90
2019-02-04T18:08:54.697Z,27.00
2019-02-04T18:11:21.855Z,27.00
2019-02-04T18:13:48.932Z,27.00
2019-02-04T18:16:16.431Z,27.00
2019-02-04T18:18:43.497Z,26.90
2019-02-04T18:21:10.597Z,26.90
2019-02-04T18:23:45.695Z,27.00
2019-02-04T18:26:06.419Z,26.90
2019-02-04T18:28:33.939Z,26.90
2019-02-04T18:31:01.032Z,26.90
2019-02-04T18:33:28.638Z,26.90
2019-02-04T18:35:55.777Z,26.90
2019-02-04T18:38:22.832Z,26.80
2019-02-04T18:40:50.321Z,26.80
2019-02-04T18:43:17.411Z,26.80
2019-02-04T18:45:44.719Z,26.80
2019-02-04T18:48:12.087Z,27.50
2019-02-04T18:50:39.555Z,27.10
2019-02-04T18:53:06.620Z,27.10
2019-02-04T18:55:33.913Z,27.10
2019-02-04T18:58:01.014Z,27.00
2019-02-04T19:00:28.456Z,27.00
2019-02-04T19:02:55.562Z,27.10
2019-02-04T19:05:22.943Z,27.10
2019-02-04T19:07:50.007Z,27.10
2019-02-04T19:10:17.185Z,27.10
2019-02-04T19:12:44.309Z,27.20
2019-02-04T19:15:11.519Z,27.20
2019-02-04T19:17:38.582Z,27.20
2019-02-04T19:20:05.691Z,27.10
2019-02-04T19:22:33.349Z,27.20
2019-02-04T19:25:00.545Z,27.20
2019-02-04T19:27:27.703Z,27.30
2019-02-04T19:29:54.811Z,27.30
2019-02-04T19:32:22.122Z,27.30
2019-02-04T19:34:49.357Z,27.20
2019-02-04T19:37:16.441Z,27.20
2019-02-04T19:39:43.639Z,27.20
2019-02-04T19:42:12.847Z,27.20
2019-02-04T19:44:39.974Z,27.20
2019-02-04T19:47:07.475Z,27.10
2019-02-04T19:49:34.687Z,27.10
2019-02-04T19:52:01.926Z,27.10
2019-02-04T19:54:28.998Z,27.10
2019-02-04T19:56:56.243Z,27.10
2019-02-04T19:59:23.385Z,27.20
2019-02-04T20:01:50.472Z,27.10
2019-02-04T20:04:17.543Z,27.10
2019-02-04T20:06:44.851Z,27.10
2019-02-04T20:09:11.922Z,27.10
2019-02-04T20:11:39.140Z,27.10
2019-02-04T20:14:08.944Z,27.10
2019-02-04T20:16:36.114Z,27.10
2019-02-04T20:19:03.237Z,27.10
2019-02-04T20:21:30.369Z,27.10
2019-02-04T20:23:57.659Z,27.10
2019-02-04T20:26:24.756Z,27.10
2019-02-04T20:28:51.963Z,27.10
2019-02-04T20:31:19.076Z,27.10
2019-02-04T20:33:47.906Z,27.10
2019-02-04T20:36:15.085Z,27.00
2019-02-04T20:38:42.236Z,27.00
2019-02-04T20:41:09.407Z,27.00
2019-02-04T20:43:36.496Z,27.00
2019-02-04T20:46:03.557Z,26.90
2019-02-04T20:48:30.633Z,26.90
2019-02-04T20:51:00.138Z,27.00
2019-02-04T20:53:26.697Z,26.90
2019-02-04T20:55:54.362Z,26.90
2019-02-04T20:58:21.483Z,26.90
2019-02-04T21:00:48.577Z,26.90
2019-02-04T21:03:15.675Z,27.20
2019-02-04T21:05:43.009Z,26.80
2019-02-04T21:08:10.167Z,27.10
2019-02-04T21:10:37.644Z,27.10
2019-02-04T21:13:04.736Z,27.00
2019-02-04T21:15:31.902Z,27.10
2019-02-04T21:17:59.011Z,27.20
2019-02-04T21:20:26.199Z,27.20
2019-02-04T21:22:53.274Z,27.20
2019-02-04T21:25:20.609Z,27.30
2019-02-04T21:27:48.275Z,27.30
2019-02-04T21:30:15.420Z,27.40
2019-02-04T21:32:42.585Z,27.40
2019-02-04T21:35:09.823Z,27.30
2019-02-04T21:37:37.087Z,27.30
2019-02-04T21:40:04.185Z,27.50
2019-02-04T21:42:31.279Z,27.40
2019-02-04T21:44:58.334Z,27.40
2019-02-04T21:47:26.246Z,27.50
2019-02-04T21:49:53.495Z,27.40
2019-02-04T21:52:20.534Z,27.50
2019-02-04T21:54:47.586Z,27.60
2019-02-04T21:57:14.977Z,27.70
2019-02-04T21:59:42.315Z,27.60
2019-02-04T22:02:09.491Z,27.60
2019-02-04T22:04:37.033Z,27.60
2019-02-04T22:07:04.361Z,27.50
2019-02-04T22:09:31.527Z,27.50
2019-02-04T22:11:59.109Z,27.40
2019-02-04T22:14:26.216Z,27.40
2019-02-04T22:16:53.335Z,27.30
2019-02-04T22:19:20.441Z,27.40
2019-02-04T22:21:47.535Z,27.40
2019-02-04T22:24:15.083Z,27.40
2019-02-04T22:26:42.223Z,27.40
2019-02-04T22:29:09.664Z,27.40
2019-02-04T22:31:36.763Z,27.40
2019-02-04T22:34:04.281Z,27.40
2019-02-04T22:36:31.332Z,27.40
2019-02-04T22:38:58.433Z,27.30
2019-02-04T22:41:25.941Z,27.30
2019-02-04T22:43:53.334Z,27.20
2019-02-04T22:46:20.397Z,27.40
2019-02-04T22:48:47.538Z,27.20
2019-02-04T22:51:14.681Z,26.80
2019-02-04T22:53:41.746Z,27.40
2019-02-04T22:56:09.284Z,27.50
2019-02-04T22:58:36.400Z,27.50
2019-02-04T23:01:03.483Z,27.30
2019-02-04T23:03:30.697Z,27.30
2019-02-04T23:05:57.795Z,27.30
2019-02-04T23:08:24.926Z,27.20
2019-02-04T23:10:52.118Z,27.20
2019-02-04T23:13:19.263Z,27.30
2019-02-04T23:15:46.462Z,27.20
2019-02-04T23:18:13.679Z,27.20
2019-02-04T23:20:40.769Z,27.20
2019-02-04T23:23:07.822Z,27.20
2019-02-04T23:25:43.071Z,27.30
2019-02-04T23:28:03.852Z,27.20
2019-02-04T23:30:30.955Z,27.10
2019-02-04T23:32:58.147Z,27.20
2019-02-04T23:35:25.255Z,27.20
2019-02-04T23:37:52.361Z,27.10
2019-02-04T23:40:19.492Z,27.10
2019-02-04T23:42:46.551Z,27.10
2019-02-04T23:45:13.603Z,27.00
2019-02-04T23:50:32.668Z,26.90
2019-02-04T23:52:59.723Z,26.90
2019-02-04T23:55:26.975Z,26.90
2019-02-04T23:57:54.067Z,26.80
